createdAt,value
2024-03-10T00:00:16.303Z,32.93
2024-03-10T00:00:48.776Z,32.80
2024-03-10T00:01:20.852Z,32.83
2024-03-10T00:01:57.599Z,32.77
2024-03-10T00:02:29.546Z,32.73
2024-03-10T00:03:04.569Z,32.87
2024-03-10T00:03:37.646Z,30.90
2024-03-10T00:04:09.544Z,31.53
2024-03-10T00:04:42.681Z,32.50
2024-03-10T00:05:15.284Z,32.97
2024-03-10T00:05:47.231Z,31.23
2024-03-10T00:06:19.332Z,31.07
2024-03-10T00:06:51.726Z,31.23
2024-03-10T00:07:24.025Z,30.30
2024-03-10T00:07:56.468Z,31.23
2024-03-10T00:08:28.829Z,32.17
2024-03-10T00:09:01.333Z,31.13
2024-03-10T00:09:33.209Z,31.13
2024-03-10T00:10:06.805Z,31.03
2024-03-10T00:10:38.992Z,30.90
2024-03-10T00:11:13.954Z,31.10
2024-03-10T00:11:48.245Z,31.00
2024-03-10T00:12:20.145Z,31.27
2024-03-10T00:12:52.071Z,30.53
2024-03-10T00:13:24.267Z,30.80
2024-03-10T00:13:56.632Z,30.17
2024-03-10T00:14:28.857Z,29.30
2024-03-10T00:15:01.971Z,29.23
2024-03-10T00:15:34.211Z,29.70
2024-03-10T00:16:06.018Z,29.40
2024-03-10T00:16:37.841Z,29.97
2024-03-10T00:17:10.981Z,29.30
2024-03-10T00:17:43.987Z,29.57
2024-03-10T00:18:15.842Z,29.33
2024-03-10T00:18:47.619Z,29.33
2024-03-10T00:19:19.351Z,29.50
2024-03-10T00:19:51.127Z,28.63
2024-03-10T00:20:23.047Z,29.90
2024-03-10T00:20:57.805Z,31.80
2024-03-10T00:21:29.616Z,29.47
2024-03-10T00:22:02.502Z,28.90
2024-03-10T00:22:34.523Z,27.83
2024-03-10T00:23:07.335Z,28.90
2024-03-10T00:23:39.382Z,29.57
2024-03-10T00:24:11.889Z,29.83
2024-03-10T00:24:44.112Z,29.40
2024-03-10T00:25:16.916Z,29.23
2024-03-10T00:25:50.021Z,28.67
2024-03-10T00:26:21.853Z,29.03
2024-03-10T00:26:53.663Z,28.43
2024-03-10T00:27:25.492Z,29.17
2024-03-10T00:27:57.366Z,29.00
2024-03-10T00:28:30.784Z,29.30
2024-03-10T00:29:02.967Z,30.30
2024-03-10T00:29:35.787Z,27.97
2024-03-10T00:30:08.681Z,28.50
2024-03-10T00:30:40.451Z,29.60
2024-03-10T00:31:12.276Z,28.47
2024-03-10T00:31:44.073Z,27.63
2024-03-10T00:32:16.156Z,28.17
2024-03-10T00:32:47.976Z,28.30
2024-03-10T00:33:20.936Z,28.00
2024-03-10T00:33:53.376Z,27.17
2024-03-10T00:34:25.295Z,27.77
2024-03-10T00:34:57.653Z,28.10
2024-03-10T00:35:30.806Z,28.70
2024-03-10T00:36:02.734Z,28.60
2024-03-10T00:36:34.541Z,27.90
2024-03-10T00:37:06.885Z,28.27
2024-03-10T00:37:49.601Z,27.37
2024-03-10T00:56:26.921Z,26.60
2024-03-10T00:56:59.051Z,26.03
2024-03-10T00:58:21.058Z,26.43
2024-03-10T00:58:58.933Z,26.13
2024-03-10T00:59:31.292Z,26.57
2024-03-10T01:16:06.454Z,26.70
2024-03-10T01:17:26.791Z,26.63
2024-03-10T01:17:59.843Z,28.10
2024-03-10T01:18:31.720Z,27.50
2024-03-10T01:19:03.525Z,27.20
2024-03-10T01:19:35.504Z,26.90
2024-03-10T01:20:07.958Z,26.80
2024-03-10T01:20:40.268Z,27.07
2024-03-10T01:21:14.204Z,25.13
2024-03-10T01:21:46.719Z,25.30
2024-03-10T01:22:19.494Z,25.37
2024-03-10T01:22:51.634Z,26.10
2024-03-10T01:23:23.484Z,26.67
2024-03-10T01:23:55.659Z,26.60
2024-03-10T01:24:27.696Z,25.90
2024-03-10T01:25:01.826Z,26.13
2024-03-10T01:25:33.992Z,26.33
2024-03-10T01:26:08.940Z,26.43
2024-03-10T01:26:40.764Z,25.77
2024-03-10T01:27:12.563Z,28.13
2024-03-10T01:27:45.052Z,26.70
2024-03-10T01:28:17.006Z,27.17
2024-03-10T01:28:48.934Z,26.80
2024-03-10T01:29:20.787Z,27.23
2024-03-10T01:29:52.720Z,25.93
2024-03-10T01:30:24.874Z,27.33
2024-03-10T01:30:57.806Z,26.10
2024-03-10T01:31:29.569Z,26.27
2024-03-10T01:32:01.471Z,27.37
2024-03-10T01:32:33.446Z,27.73
2024-03-10T01:33:05.366Z,27.53
2024-03-10T01:33:37.501Z,28.23
2024-03-10T01:34:13.434Z,27.30
2024-03-10T01:34:45.304Z,28.27
2024-03-10T01:35:17.388Z,26.80
2024-03-10T01:35:49.817Z,27.40
2024-03-10T01:36:21.674Z,27.63
2024-03-10T01:36:56.353Z,27.00
2024-03-10T01:37:28.107Z,26.77
2024-03-10T01:37:59.904Z,27.27
2024-03-10T01:38:31.774Z,28.90
2024-03-10T01:39:03.584Z,26.37
2024-03-10T01:39:35.397Z,25.70
2024-03-10T01:40:07.480Z,26.53
2024-03-10T01:40:39.274Z,26.90
2024-03-10T01:41:13.351Z,27.07
2024-03-10T01:41:46.449Z,27.07
2024-03-10T01:42:19.402Z,27.67
2024-03-10T01:42:57.192Z,26.67
2024-03-10T01:43:29.012Z,28.20
2024-03-10T01:44:00.851Z,27.37
2024-03-10T01:44:33.694Z,27.87
2024-03-10T01:45:05.838Z,28.40
2024-03-10T01:45:37.636Z,28.43
2024-03-10T01:46:09.781Z,27.70
2024-03-10T01:46:42.809Z,27.23
2024-03-10T01:47:16.359Z,26.27
2024-03-10T01:47:48.982Z,26.37
2024-03-10T01:48:22.420Z,26.33
2024-03-10T01:48:54.788Z,27.73
2024-03-10T01:49:27.433Z,28.60
2024-03-10T01:49:59.436Z,28.47
2024-03-10T01:50:32.813Z,27.97
2024-03-10T01:51:08.521Z,27.10
2024-03-10T01:51:43.074Z,28.13
2024-03-10T01:52:14.850Z,27.87
2024-03-10T01:52:49.603Z,27.23
2024-03-10T01:53:21.947Z,26.73
2024-03-10T01:53:53.948Z,27.37
2024-03-10T01:54:29.662Z,26.47
2024-03-10T01:55:02.125Z,28.47
2024-03-10T01:55:33.905Z,27.33
2024-03-10T01:56:06.801Z,26.60
2024-03-10T01:56:39.677Z,27.53
2024-03-10T01:57:11.699Z,26.80
2024-03-10T01:57:44.186Z,27.93
2024-03-10T01:58:18.167Z,27.23
2024-03-10T01:58:54.794Z,27.63
2024-03-10T01:59:28.175Z,26.37
2024-03-10T02:00:01.808Z,27.27
2024-03-10T02:00:33.749Z,27.40
2024-03-10T02:01:05.816Z,26.47
2024-03-10T02:01:37.657Z,25.67
2024-03-10T02:02:09.458Z,26.13
2024-03-10T02:02:44.309Z,26.93
2024-03-10T02:03:17.105Z,28.57
2024-03-10T02:03:50.792Z,27.70
2024-03-10T02:04:23.851Z,27.87
2024-03-10T02:04:55.672Z,27.63
2024-03-10T02:05:27.551Z,26.63
2024-03-10T02:05:59.406Z,26.67
2024-03-10T02:06:31.416Z,25.53
2024-03-10T02:07:03.364Z,27.10
2024-03-10T02:07:36.653Z,27.07
2024-03-10T02:08:08.504Z,27.13
2024-03-10T02:08:43.334Z,26.17
2024-03-10T02:09:15.271Z,27.13
2024-03-10T02:09:47.511Z,27.40
2024-03-10T02:10:20.388Z,27.47
2024-03-10T02:10:53.723Z,26.77
2024-03-10T02:11:25.832Z,26.07
2024-03-10T02:11:58.669Z,25.90
2024-03-10T02:12:31.002Z,26.90
2024-03-10T02:13:02.793Z,26.40
2024-03-10T02:13:34.701Z,27.63
2024-03-10T02:14:06.463Z,28.90
2024-03-10T02:14:41.916Z,28.30
2024-03-10T02:15:13.850Z,27.27
2024-03-10T02:15:58.890Z,27.30
2024-03-10T02:16:30.655Z,27.07
2024-03-10T02:17:03.082Z,27.13
2024-03-10T02:17:38.052Z,27.00
2024-03-10T02:18:11.604Z,27.73
2024-03-10T02:18:43.387Z,27.03
2024-03-10T02:19:18.105Z,27.20
2024-03-10T02:19:49.927Z,27.77
2024-03-10T02:20:22.245Z,27.83
2024-03-10T02:20:54.703Z,26.57
2024-03-10T02:21:29.000Z,26.17
2024-03-10T02:22:00.806Z,25.87
2024-03-10T02:22:32.587Z,26.97
2024-03-10T02:23:04.522Z,27.00
2024-03-10T02:23:39.812Z,27.37
2024-03-10T02:24:17.852Z,28.00
2024-03-10T02:24:51.715Z,28.53
2024-03-10T02:25:26.151Z,28.23
2024-03-10T02:26:00.319Z,27.50
2024-03-10T02:26:38.586Z,28.37
2024-03-10T02:27:17.144Z,27.13
2024-03-10T02:27:51.593Z,26.90
2024-03-10T02:28:35.904Z,27.27
2024-03-10T02:29:17.987Z,28.47
2024-03-10T02:30:19.908Z,28.50
2024-03-10T02:30:59.089Z,27.47
2024-03-10T02:31:51.818Z,28.70
2024-03-10T02:53:32.139Z,30.03
2024-03-10T02:54:05.217Z,29.97
2024-03-10T02:54:41.494Z,30.53
2024-03-10T02:55:13.308Z,29.33
2024-03-10T02:55:46.988Z,30.13
2024-03-10T02:56:22.159Z,30.60
2024-03-10T02:56:54.054Z,30.47
2024-03-10T02:57:25.863Z,30.37
2024-03-10T02:57:57.684Z,30.03
2024-03-10T02:58:29.844Z,29.50
2024-03-10T02:59:01.675Z,29.27
2024-03-10T02:59:33.933Z,28.30
2024-03-10T03:00:11.045Z,28.37
2024-03-10T03:00:42.899Z,31.17
2024-03-10T03:01:17.640Z,30.70
2024-03-10T03:01:49.726Z,29.33
2024-03-10T03:02:23.645Z,29.50
2024-03-10T03:02:56.678Z,29.13
2024-03-10T03:03:29.610Z,31.10
2024-03-10T03:04:01.520Z,30.83
2024-03-10T03:04:33.398Z,30.43
2024-03-10T03:05:05.453Z,31.37
2024-03-10T03:05:42.005Z,30.07
2024-03-10T03:06:14.281Z,29.80
2024-03-10T03:06:46.100Z,30.93
2024-03-10T03:07:19.634Z,29.93
2024-03-10T03:07:51.521Z,29.23
2024-03-10T03:08:23.426Z,30.60
2024-03-10T03:08:55.699Z,31.33
2024-03-10T03:09:28.198Z,30.67
2024-03-10T03:10:01.135Z,30.80
2024-03-10T03:10:33.330Z,29.77
2024-03-10T03:11:05.178Z,28.97
2024-03-10T03:11:38.869Z,30.93
2024-03-10T03:12:11.441Z,30.13
2024-03-10T03:26:31.642Z,31.67
2024-03-10T03:29:25.978Z,31.10
2024-03-10T03:36:07.665Z,32.50
2024-03-10T03:36:39.875Z,31.63
2024-03-10T03:47:39.228Z,33.23
2024-03-10T03:48:11.553Z,33.67
2024-03-10T03:48:43.343Z,33.30
2024-03-10T03:49:15.498Z,32.23
2024-03-10T03:49:47.569Z,33.17
2024-03-10T03:50:20.090Z,32.53
2024-03-10T04:00:14.760Z,33.37
2024-03-10T04:06:57.325Z,34.17
2024-03-10T04:07:29.910Z,34.30
2024-03-10T04:08:01.826Z,35.10
2024-03-10T04:08:33.975Z,35.20
2024-03-10T04:09:05.948Z,34.40
2024-03-10T04:09:38.292Z,34.23
2024-03-10T04:10:10.976Z,32.93
2024-03-10T04:10:42.849Z,32.50
2024-03-10T04:11:14.748Z,32.30
2024-03-10T04:11:46.606Z,34.17
2024-03-10T04:12:18.719Z,34.00
2024-03-10T04:12:50.767Z,33.90
2024-03-10T04:13:22.661Z,35.10
2024-03-10T04:13:54.485Z,33.73
2024-03-10T04:14:28.053Z,34.93
2024-03-10T04:15:00.166Z,36.13
2024-03-10T04:15:31.930Z,36.07
2024-03-10T04:16:03.849Z,36.37
2024-03-10T04:16:35.721Z,35.60
2024-03-10T04:17:08.992Z,33.03
2024-03-10T04:17:40.958Z,33.87
2024-03-10T04:18:12.922Z,34.20
2024-03-10T04:18:44.738Z,36.00
2024-03-10T04:19:16.598Z,36.23
2024-03-10T04:19:48.471Z,34.20
2024-03-10T04:20:20.325Z,34.43
2024-03-10T04:20:52.676Z,33.83
2024-03-10T04:21:24.452Z,33.87
2024-03-10T04:21:56.280Z,33.03
2024-03-10T04:22:28.133Z,33.87
2024-03-10T04:23:00.020Z,34.77
2024-03-10T04:23:33.645Z,34.30
2024-03-10T04:24:11.077Z,35.50
2024-03-10T04:24:43.126Z,34.10
2024-03-10T04:25:15.975Z,33.60
2024-03-10T04:25:47.850Z,32.60
2024-03-10T04:26:19.762Z,35.10
2024-03-10T04:26:51.923Z,34.20
2024-03-10T04:27:25.442Z,34.03
2024-03-10T04:27:57.240Z,34.10
2024-03-10T04:28:29.027Z,36.40
2024-03-10T04:29:01.089Z,35.50
2024-03-10T04:29:32.990Z,34.53
2024-03-10T04:30:05.979Z,35.43
2024-03-10T04:30:37.788Z,35.70
2024-03-10T04:31:09.731Z,34.00
2024-03-10T04:31:41.551Z,34.13
2024-03-10T04:32:14.188Z,33.97
2024-03-10T04:32:46.447Z,34.00
2024-03-10T04:33:18.281Z,35.53
2024-03-10T04:33:50.071Z,36.00
2024-03-10T04:34:22.950Z,33.90
2024-03-10T04:34:55.723Z,34.90
2024-03-10T04:35:27.824Z,35.40
2024-03-10T04:35:59.619Z,35.43
2024-03-10T04:36:31.753Z,35.50
2024-03-10T04:37:06.313Z,38.00
2024-03-10T04:37:38.313Z,36.03
2024-03-10T04:38:10.134Z,36.23
2024-03-10T04:38:41.984Z,36.77
2024-03-10T04:39:13.745Z,35.90
2024-03-10T04:39:47.697Z,34.40
2024-03-10T04:40:19.679Z,35.57
2024-03-10T04:40:51.545Z,35.57
2024-03-10T04:41:23.937Z,34.93
2024-03-10T04:41:55.792Z,35.07
2024-03-10T04:42:27.589Z,35.50
2024-03-10T04:42:59.422Z,33.90
2024-03-10T04:43:31.245Z,36.77
2024-03-10T04:44:03.908Z,36.97
2024-03-10T04:44:35.929Z,37.63
2024-03-10T04:45:08.153Z,38.07
2024-03-10T04:45:40.125Z,36.80
2024-03-10T04:46:12.106Z,36.20
2024-03-10T04:46:43.886Z,34.80
2024-03-10T04:47:15.703Z,36.70
2024-03-10T04:47:48.171Z,36.30
2024-03-10T04:48:20.294Z,36.17
2024-03-10T04:48:52.072Z,35.17
2024-03-10T04:49:24.042Z,35.20
2024-03-10T04:49:57.373Z,35.13
2024-03-10T04:50:30.752Z,35.87
2024-03-10T04:51:02.591Z,37.37
2024-03-10T04:51:34.509Z,36.67
2024-03-10T04:52:06.455Z,36.90
2024-03-10T04:52:38.914Z,36.30
2024-03-10T04:53:10.797Z,37.00
2024-03-10T04:53:44.063Z,36.77
2024-03-10T04:54:15.886Z,37.27
2024-03-10T04:54:47.683Z,34.63
2024-03-10T04:55:19.565Z,34.47
2024-03-10T04:55:51.423Z,34.60
2024-03-10T04:56:23.486Z,35.10
2024-03-10T04:56:55.285Z,37.53
2024-03-10T04:57:27.072Z,37.80
2024-03-10T04:57:58.907Z,35.47
2024-03-10T04:58:30.688Z,37.43
2024-03-10T04:59:02.950Z,36.87
2024-03-10T04:59:36.178Z,36.47
2024-03-10T05:00:11.472Z,38.37
2024-03-10T05:00:43.667Z,36.13
2024-03-10T05:01:17.692Z,36.83
2024-03-10T05:01:55.556Z,37.27
2024-03-10T05:02:28.080Z,37.30
2024-03-10T05:03:00.940Z,37.03
2024-03-10T05:03:32.726Z,37.47
2024-03-10T05:04:04.625Z,36.67
2024-03-10T05:04:36.461Z,37.37
2024-03-10T05:05:16.257Z,37.63
2024-03-10T05:05:48.066Z,38.67
2024-03-10T05:06:19.864Z,37.80
2024-03-10T05:06:51.662Z,36.83
2024-03-10T05:07:23.456Z,35.97
2024-03-10T05:07:55.542Z,37.37
2024-03-10T05:08:27.460Z,37.87
2024-03-10T05:08:59.683Z,37.57
2024-03-10T05:09:32.392Z,37.23
2024-03-10T05:10:05.038Z,36.33
2024-03-10T05:10:37.139Z,37.93
2024-03-10T05:11:08.978Z,37.27
2024-03-10T05:11:41.355Z,36.27
2024-03-10T05:12:14.271Z,36.63
2024-03-10T05:12:46.837Z,38.53
2024-03-10T05:13:19.662Z,37.57
2024-03-10T05:13:55.581Z,38.83
2024-03-10T05:14:27.841Z,38.80
2024-03-10T05:14:59.650Z,37.50
2024-03-10T05:15:31.433Z,37.93
2024-03-10T05:16:07.238Z,37.67
2024-03-10T05:16:39.278Z,36.40
2024-03-10T05:17:13.075Z,37.90
2024-03-10T05:17:45.361Z,38.30
2024-03-10T05:18:18.058Z,38.77
2024-03-10T05:18:49.936Z,37.70
2024-03-10T05:19:27.188Z,38.23
2024-03-10T05:19:59.782Z,38.17
2024-03-10T05:20:32.779Z,39.10
2024-03-10T05:21:04.751Z,38.13
2024-03-10T05:21:36.580Z,38.17
2024-03-10T05:22:11.104Z,38.67
2024-03-10T05:22:43.284Z,39.07
2024-03-10T05:23:15.158Z,38.20
2024-03-10T05:23:46.988Z,38.53
2024-03-10T05:24:18.743Z,37.50
2024-03-10T05:24:50.492Z,37.77
2024-03-10T05:25:24.372Z,37.63
2024-03-10T05:25:56.375Z,38.50
2024-03-10T05:26:28.350Z,39.47
2024-03-10T05:27:01.808Z,39.53
2024-03-10T05:27:41.348Z,37.87
2024-03-10T05:28:17.021Z,37.23
2024-03-10T05:28:52.011Z,40.40
2024-03-10T05:29:23.931Z,39.10
2024-03-10T05:30:46.687Z,38.73
2024-03-10T05:31:28.528Z,38.47
2024-03-10T05:32:00.915Z,38.33
2024-03-10T05:32:33.630Z,38.93
2024-03-10T05:33:07.658Z,39.13
2024-03-10T05:33:39.825Z,38.40
2024-03-10T05:34:11.684Z,38.27
2024-03-10T05:34:43.472Z,38.40
2024-03-10T05:35:15.567Z,39.20
2024-03-10T05:35:47.612Z,38.30
2024-03-10T05:36:19.431Z,38.90
2024-03-10T05:36:51.527Z,38.30
2024-03-10T05:37:26.307Z,38.03
2024-03-10T05:38:18.890Z,38.47
2024-03-10T05:38:50.731Z,38.70
2024-03-10T05:39:31.948Z,38.83
2024-03-10T05:40:10.118Z,39.10
2024-03-10T05:40:42.035Z,37.87
2024-03-10T05:41:14.113Z,38.73
2024-03-10T05:41:46.099Z,39.53
2024-03-10T05:42:18.389Z,40.10
2024-03-10T05:42:53.351Z,39.13
2024-03-10T05:43:25.652Z,39.50
2024-03-10T05:44:44.245Z,40.27
2024-03-10T05:45:17.550Z,40.77
2024-03-10T05:45:54.539Z,39.47
2024-03-10T05:46:27.488Z,38.90
2024-03-10T05:47:08.521Z,39.17
2024-03-10T05:47:42.398Z,37.20
2024-03-10T05:48:16.428Z,37.30
2024-03-10T05:48:49.281Z,38.00
2024-03-10T05:49:22.387Z,39.13
2024-03-10T05:49:56.394Z,39.27
2024-03-10T05:50:28.279Z,37.43
2024-03-10T05:51:00.113Z,38.27
2024-03-10T05:51:32.081Z,38.33
2024-03-10T05:52:05.235Z,37.83
2024-03-10T05:52:37.044Z,37.67
2024-03-10T05:53:09.163Z,39.00
2024-03-10T05:53:42.744Z,38.97
2024-03-10T05:54:15.619Z,38.63
2024-03-10T05:54:49.812Z,38.70
2024-03-10T05:55:22.764Z,38.40
2024-03-10T05:55:56.843Z,38.23
2024-03-10T05:56:28.770Z,36.63
2024-03-10T05:57:01.122Z,37.90
2024-03-10T05:57:32.927Z,38.20
2024-03-10T05:58:07.635Z,38.43
2024-03-10T05:58:43.567Z,39.73
2024-03-10T05:59:16.437Z,37.47
2024-03-10T05:59:48.645Z,38.67
2024-03-10T06:00:20.429Z,38.80
2024-03-10T06:00:52.752Z,37.70
2024-03-10T06:01:25.572Z,37.57
2024-03-10T06:01:57.512Z,39.73
2024-03-10T06:02:30.263Z,37.23
2024-03-10T06:03:02.141Z,37.40
2024-03-10T06:03:33.986Z,39.77
2024-03-10T06:04:06.863Z,38.73
2024-03-10T06:04:38.781Z,38.53
2024-03-10T06:05:10.888Z,37.73
2024-03-10T06:05:46.922Z,37.73
2024-03-10T06:06:19.374Z,38.93
2024-03-10T06:06:51.826Z,37.67
2024-03-10T06:07:24.037Z,36.87
2024-03-10T06:07:57.013Z,36.73
2024-03-10T06:08:28.938Z,36.73
2024-03-10T06:09:02.592Z,37.77
2024-03-10T06:09:38.144Z,38.77
2024-03-10T06:10:11.050Z,38.50
2024-03-10T06:10:42.924Z,38.33
2024-03-10T06:11:14.950Z,38.37
2024-03-10T06:11:47.297Z,37.73
2024-03-10T06:12:19.719Z,37.47
2024-03-10T06:12:54.540Z,38.37
2024-03-10T06:13:26.454Z,37.80
2024-03-10T06:13:58.812Z,36.73
2024-03-10T06:14:31.715Z,37.57
2024-03-10T06:15:04.969Z,37.53
2024-03-10T06:15:36.802Z,37.80
2024-03-10T06:16:09.031Z,37.37
2024-03-10T06:16:40.845Z,37.87
2024-03-10T06:17:14.740Z,37.20
2024-03-10T06:18:05.679Z,37.33
2024-03-10T06:18:56.166Z,38.10
2024-03-10T06:19:50.064Z,37.23
2024-03-10T06:20:40.326Z,37.77
2024-03-10T06:21:30.774Z,37.60
2024-03-10T06:22:21.786Z,38.33
2024-03-10T06:23:15.643Z,38.17
2024-03-10T06:24:05.978Z,38.23
2024-03-10T06:24:56.682Z,37.40
2024-03-10T06:25:31.878Z,36.73
2024-03-10T06:26:05.524Z,37.37
2024-03-10T06:26:40.484Z,36.17
2024-03-10T06:27:14.343Z,37.77
2024-03-10T06:27:46.841Z,37.53
2024-03-10T06:28:19.917Z,35.67
2024-03-10T06:28:54.578Z,36.03
2024-03-10T06:29:28.946Z,36.73
2024-03-10T06:30:01.909Z,37.43
2024-03-10T06:30:34.630Z,36.87
2024-03-10T06:31:06.998Z,37.03
2024-03-10T06:31:40.416Z,36.03
2024-03-10T06:32:15.912Z,37.13
2024-03-10T06:58:21.554Z,34.27
2024-03-10T06:58:57.902Z,36.17
2024-03-10T06:59:31.149Z,35.47
2024-03-10T07:00:03.478Z,32.27
2024-03-10T07:00:36.454Z,32.83
2024-03-10T07:01:08.218Z,33.27
2024-03-10T07:01:46.380Z,32.83
2024-03-10T07:02:23.673Z,34.37
2024-03-10T07:02:57.087Z,32.87
2024-03-10T07:03:29.108Z,32.60
2024-03-10T07:04:03.701Z,32.60
2024-03-10T07:04:35.842Z,33.57
2024-03-10T07:05:19.654Z,33.00
2024-03-10T07:11:37.666Z,32.10
2024-03-10T07:12:09.917Z,32.40
2024-03-10T07:12:41.942Z,31.43
2024-03-10T07:13:15.572Z,31.13
2024-03-10T07:13:47.410Z,31.57
2024-03-10T07:14:21.161Z,32.20
2024-03-10T07:14:54.293Z,33.90
2024-03-10T07:15:26.067Z,31.03
2024-03-10T07:15:57.905Z,30.63
2024-03-10T07:16:29.713Z,31.33
2024-03-10T07:17:02.952Z,32.77
2024-03-10T07:17:34.926Z,32.80
2024-03-10T07:18:06.806Z,30.60
2024-03-10T07:18:38.720Z,31.57
2024-03-10T07:19:10.682Z,31.17
2024-03-10T07:19:43.458Z,31.13
2024-03-10T07:20:15.281Z,31.07
2024-03-10T07:20:48.128Z,33.03
2024-03-10T07:21:19.930Z,31.23
2024-03-10T07:21:52.596Z,31.57
2024-03-10T07:22:24.377Z,30.80
2024-03-10T07:22:56.327Z,31.43
2024-03-10T07:23:28.211Z,30.80
2024-03-10T07:24:00.014Z,28.90
2024-03-10T07:24:31.952Z,30.80
2024-03-10T07:25:04.357Z,31.60
2024-03-10T07:25:37.218Z,31.53
2024-03-10T07:26:09.176Z,30.73
2024-03-10T07:26:42.969Z,30.90
2024-03-10T07:27:14.957Z,32.00
2024-03-10T08:03:50.434Z,26.30
2024-03-10T08:16:29.294Z,27.03
2024-03-10T08:17:01.134Z,26.00
2024-03-10T08:17:33.091Z,25.67
2024-03-10T08:18:55.013Z,28.17
2024-03-10T08:19:29.959Z,27.17
2024-03-10T09:35:46.023Z,22.67
2024-03-10T09:36:20.719Z,21.80
2024-03-10T09:36:52.805Z,25.83
2024-03-10T09:37:26.832Z,26.53
2024-03-10T09:38:06.153Z,23.80
2024-03-10T09:38:41.230Z,20.47
2024-03-10T09:39:14.314Z,19.67
2024-03-10T09:39:46.185Z,21.33
2024-03-10T09:40:27.176Z,21.40
2024-03-10T09:41:01.646Z,21.17
2024-03-10T10:22:17.285Z,10.90
2024-03-10T10:23:02.191Z,10.57
2024-03-10T10:23:35.028Z,10.50
2024-03-10T10:24:10.798Z,10.17
2024-03-10T10:24:43.428Z,9.83
2024-03-10T11:09:06.603Z,7.53
2024-03-10T11:17:14.316Z,8.07
2024-03-10T11:17:47.907Z,10.10
2024-03-10T11:18:22.129Z,12.17
2024-03-10T11:19:12.022Z,12.37
2024-03-10T11:19:48.369Z,8.17
2024-03-10T11:20:27.400Z,7.87
2024-03-10T11:21:02.597Z,14.27
2024-03-10T11:21:34.898Z,18.27
2024-03-10T11:22:09.186Z,11.33
2024-03-10T11:22:52.837Z,20.10
2024-03-10T11:23:47.621Z,21.43
2024-03-10T11:24:22.373Z,8.37
2024-03-10T11:25:10.178Z,8.80
2024-03-10T11:25:50.623Z,8.17
2024-03-10T11:26:26.895Z,7.70
2024-03-10T11:27:17.429Z,7.43
2024-03-10T11:27:50.255Z,6.67
2024-03-10T11:28:28.028Z,6.60
2024-03-10T11:29:49.491Z,7.23
2024-03-10T11:34:58.259Z,5.87
2024-03-10T11:35:30.492Z,5.60
2024-03-10T11:36:03.753Z,5.53
2024-03-10T11:37:27.377Z,5.67
2024-03-10T11:38:02.183Z,5.97
2024-03-10T11:38:38.999Z,5.73
2024-03-10T11:39:21.409Z,6.30
2024-03-10T11:39:57.291Z,5.53
2024-03-10T11:40:31.726Z,5.90
2024-03-10T11:41:18.714Z,5.80
2024-03-10T11:41:55.748Z,6.50
2024-03-10T11:42:27.945Z,5.50
2024-03-10T11:43:00.661Z,5.50
2024-03-10T11:43:37.687Z,5.60
2024-03-10T11:44:13.407Z,6.27
2024-03-10T11:44:46.875Z,5.63
2024-03-10T11:45:20.037Z,5.57
2024-03-10T11:45:53.545Z,5.70
2024-03-10T11:46:35.580Z,5.70
2024-03-10T11:47:13.023Z,5.33
2024-03-10T11:48:00.291Z,5.60
2024-03-10T11:48:33.882Z,5.50
2024-03-10T11:49:16.497Z,5.10
2024-03-10T11:49:51.038Z,4.70
2024-03-10T11:50:23.134Z,4.80
2024-03-10T11:50:56.467Z,4.87
2024-03-10T11:51:29.439Z,4.97
2024-03-10T11:52:16.570Z,4.60
2024-03-10T11:53:02.667Z,4.13
2024-03-10T11:53:37.087Z,4.77
2024-03-10T14:44:23.260Z,4.53
2024-03-10T14:44:55.785Z,4.77
2024-03-10T14:45:38.171Z,4.63
2024-03-10T14:46:10.052Z,4.33
2024-03-10T14:46:44.245Z,4.77
2024-03-10T14:47:16.321Z,5.30
2024-03-10T14:47:50.235Z,5.00
2024-03-10T14:48:23.538Z,4.60
2024-03-10T14:49:41.896Z,4.43
2024-03-10T14:50:18.088Z,4.43
2024-03-10T14:50:50.990Z,4.30
2024-03-10T14:51:23.296Z,4.43
2024-03-10T14:51:56.346Z,3.97
2024-03-10T14:52:28.985Z,3.90
2024-03-10T14:53:02.450Z,3.73
2024-03-10T14:53:34.520Z,3.40
2024-03-10T14:54:08.989Z,3.50
2024-03-10T14:54:47.428Z,4.20
2024-03-10T16:06:38.981Z,3.93
2024-03-10T16:07:11.403Z,3.43
2024-03-10T16:07:43.464Z,3.23
2024-03-10T16:58:57.843Z,4.73
2024-03-10T16:59:29.670Z,4.30
2024-03-10T17:00:01.987Z,4.07
2024-03-10T17:00:36.785Z,4.90
2024-03-10T17:01:09.452Z,4.60
2024-03-10T17:01:44.850Z,4.57
2024-03-10T17:04:03.403Z,5.07
2024-03-10T17:04:40.320Z,4.87
2024-03-10T17:06:03.104Z,5.10
2024-03-10T17:07:28.539Z,5.13
2024-03-10T17:08:02.827Z,4.60
2024-03-10T17:11:18.322Z,4.47
2024-03-10T17:11:50.280Z,4.47
2024-03-10T17:12:22.701Z,4.23
2024-03-10T17:12:55.608Z,3.93
2024-03-10T17:13:28.244Z,4.40
2024-03-10T17:14:01.811Z,4.17
2024-03-10T17:14:36.440Z,3.93
2024-03-10T17:15:14.628Z,3.93
2024-03-10T17:17:47.705Z,4.17
2024-03-10T17:18:20.461Z,4.13
2024-03-10T17:18:53.044Z,3.70
2024-03-10T17:19:24.953Z,4.03
2024-03-10T17:19:57.388Z,4.47
2024-03-10T17:20:29.563Z,4.23
2024-03-10T17:21:01.603Z,4.30
2024-03-10T17:21:34.509Z,4.30
2024-03-10T17:22:06.848Z,4.27
2024-03-10T17:22:45.228Z,4.47
2024-03-10T17:23:17.017Z,4.47
2024-03-10T17:23:49.138Z,4.30
2024-03-10T17:24:26.998Z,4.03
2024-03-10T17:24:58.970Z,4.17
2024-03-10T17:25:31.489Z,4.07
2024-03-10T17:26:04.991Z,4.43
2024-03-10T17:26:46.334Z,4.47
2024-03-10T17:27:18.351Z,4.53
2024-03-10T17:27:51.145Z,4.50
2024-03-10T17:28:24.626Z,4.17
2024-03-10T17:28:58.210Z,4.30
2024-03-10T17:29:30.113Z,4.20
2024-03-10T17:30:01.989Z,4.23
2024-03-10T17:30:35.846Z,4.37
2024-03-10T17:31:07.932Z,4.97
2024-03-10T17:31:39.884Z,4.27
2024-03-10T17:32:11.896Z,3.73
2024-03-10T17:32:46.433Z,4.33
2024-03-10T17:33:19.186Z,4.17
2024-03-10T17:33:51.217Z,4.07
2024-03-10T17:34:23.713Z,4.20
2024-03-10T17:34:55.709Z,4.00
2024-03-10T17:35:28.669Z,3.63
2024-03-10T17:36:02.003Z,3.77
2024-03-10T17:36:35.015Z,3.97
2024-03-10T17:37:07.187Z,4.13
2024-03-10T17:37:59.655Z,4.63
2024-03-10T17:38:31.646Z,4.33
2024-03-10T17:39:08.204Z,3.27
2024-03-10T17:39:40.214Z,4.23
2024-03-10T17:40:14.740Z,3.83
2024-03-10T17:40:47.251Z,4.13
2024-03-10T17:47:40.760Z,4.47
2024-03-10T17:48:14.208Z,4.27
2024-03-10T17:48:49.782Z,3.80
2024-03-10T17:49:22.486Z,3.97
2024-03-10T18:28:41.281Z,4.17
2024-03-10T18:29:16.707Z,4.20
2024-03-10T18:36:56.507Z,4.63
2024-03-10T18:37:29.302Z,4.30
2024-03-10T18:38:01.153Z,4.27
2024-03-10T18:38:35.226Z,4.00
2024-03-10T18:39:15.324Z,4.13
2024-03-10T18:39:49.898Z,4.13
2024-03-10T18:40:24.493Z,4.30
2024-03-10T18:40:57.437Z,4.23
2024-03-10T18:41:29.293Z,4.93
2024-03-10T18:42:04.805Z,4.20
2024-03-10T18:42:41.657Z,4.43
2024-03-10T18:43:14.694Z,4.97
2024-03-10T18:43:47.550Z,4.50
2024-03-10T18:44:19.356Z,4.33
2024-03-10T18:44:53.207Z,4.33
2024-03-10T18:45:25.224Z,9.73
2024-03-10T18:46:04.666Z,8.63
2024-03-10T18:46:37.625Z,5.13
2024-03-10T18:47:11.825Z,23.03
2024-03-10T18:47:43.932Z,34.53
2024-03-10T18:48:16.763Z,35.17
2024-03-10T18:48:50.282Z,6.60
2024-03-10T18:52:34.205Z,4.77
2024-03-10T18:53:06.097Z,4.37
2024-03-10T18:53:38.189Z,4.47
2024-03-10T18:54:10.092Z,4.77
2024-03-10T18:54:42.182Z,4.40
2024-03-10T18:55:14.543Z,3.93
2024-03-10T18:55:47.323Z,4.57
2024-03-10T18:56:19.452Z,4.50
2024-03-10T18:56:52.845Z,4.17
2024-03-10T18:57:25.793Z,4.63
2024-03-10T18:57:58.088Z,4.93
2024-03-10T18:58:30.601Z,4.67
2024-03-10T18:59:02.566Z,4.40
2024-03-10T18:59:35.875Z,4.23
2024-03-10T19:00:08.035Z,5.23
2024-03-10T19:00:40.762Z,5.03
2024-03-10T19:01:16.705Z,4.93
2024-03-10T19:01:48.691Z,5.27
2024-03-10T19:02:20.770Z,5.20
2024-03-10T19:02:52.838Z,4.97
2024-03-10T19:03:25.265Z,5.30
2024-03-10T19:03:58.463Z,5.23
2024-03-10T19:04:30.497Z,4.97
2024-03-10T19:05:02.605Z,5.00
2024-03-10T19:05:35.403Z,4.67
2024-03-10T19:06:07.277Z,5.00
2024-03-10T19:06:39.140Z,5.23
2024-03-10T19:07:12.119Z,4.83
2024-03-10T19:07:46.102Z,5.17
2024-03-10T19:08:19.760Z,4.93
2024-03-10T19:08:51.992Z,4.87
2024-03-10T19:09:27.174Z,4.90
2024-03-10T19:09:59.003Z,4.53
2024-03-10T19:10:33.523Z,4.03
2024-03-10T19:11:19.254Z,4.73
2024-03-10T19:16:40.762Z,4.17
2024-03-10T19:17:12.766Z,4.23
2024-03-10T19:17:45.902Z,3.97
2024-03-10T19:18:19.678Z,4.40
2024-03-10T19:18:51.549Z,4.27
2024-03-10T19:19:23.338Z,4.30